Time;durP1;ratioP1;P1;durP2;ratioP2;P2;SDS_P1;SDS_P2;PMS_P1;PMS_P2;Temp;Humidity;BMP_temperature;BMP_pressure;BME280_temperature;BME280_humidity;BME280_pressure;Samples;Min_cycle;Max_cycle;Signal;HPM_P1;HPM_P2
2021/10/10 00:00:32;;;;;;;7.33;6.40;;;11.40;33.30;;;;;;10449241;28;20224;-74
2021/10/10 00:05:35;;;;;;;9.70;8.70;;;11.40;33.30;;;;;;10448531;28;20231;-74
2021/10/10 00:10:40;;;;;;;9.00;8.00;;;11.30;33.60;;;;;;10454283;28;20247;-74
2021/10/10 00:15:43;;;;;;;8.33;7.53;;;11.20;33.60;;;;;;10458065;28;20239;-74
2021/10/10 00:20:46;;;;;;;9.07;8.13;;;11.10;33.40;;;;;;10453971;28;20607;-74
2021/10/10 00:25:51;;;;;;;7.40;6.77;;;11.10;33.50;;;;;;10443758;28;20221;-73
2021/10/10 00:30:56;;;;;;;7.77;7.07;;;11.00;34.40;;;;;;10457403;28;20248;-75
2021/10/10 00:35:59;;;;;;;8.23;7.43;;;10.90;33.60;;;;;;10456906;28;20225;-74
2021/10/10 00:41:05;;;;;;;11.27;8.23;;;10.80;33.60;;;;;;10458427;28;20877;-74
2021/10/10 00:46:08;;;;;;;8.03;7.23;;;10.80;33.90;;;;;;10455547;28;20240;-73
2021/10/10 00:51:12;;;;;;;7.20;6.60;;;10.70;33.70;;;;;;10452326;28;20356;-74
2021/10/10 00:56:17;;;;;;;8.17;7.37;;;10.60;33.60;;;;;;10451228;28;20227;-74
2021/10/10 01:01:20;;;;;;;9.03;7.70;;;10.60;34.00;;;;;;10448560;28;20232;-74
2021/10/10 01:06:24;;;;;;;9.10;8.20;;;10.50;33.80;;;;;;10453696;28;20343;-74
2021/10/10 01:11:29;;;;;;;8.70;7.80;;;10.50;33.90;;;;;;10457421;28;20229;-74
2021/10/10 01:16:32;;;;;;;9.67;7.40;;;10.40;34.20;;;;;;10448635;28;20229;-74
2021/10/10 01:21:37;;;;;;;6.87;6.23;;;10.40;34.00;;;;;;10451912;28;20227;-73
2021/10/10 01:26:40;;;;;;;8.27;7.30;;;10.40;34.20;;;;;;10453254;28;20701;-74
2021/10/10 01:31:44;;;;;;;8.00;7.20;;;10.40;34.10;;;;;;10442681;28;20225;-73
2021/10/10 01:36:48;;;;;;;8.20;7.40;;;10.30;34.00;;;;;;10439368;28;20256;-74
2021/10/10 01:41:51;;;;;;;8.43;7.50;;;10.30;34.10;;;;;;10451937;28;20599;-74
2021/10/10 01:46:54;;;;;;;6.93;6.23;;;10.20;34.10;;;;;;10446473;28;20229;-74
2021/10/10 01:51:59;;;;;;;8.53;7.50;;;10.20;34.10;;;;;;10447586;28;20218;-74
2021/10/10 01:57:02;;;;;;;8.40;6.93;;;10.10;34.20;;;;;;10446963;28;20221;-74
2021/10/10 02:02:06;;;;;;;9.43;7.57;;;10.10;34.00;;;;;;10455595;28;21102;-74
2021/10/10 02:07:10;;;;;;;8.00;7.20;;;10.10;34.20;;;;;;10457244;28;20260;-74
2021/10/10 02:12:13;;;;;;;7.57;6.83;;;10.10;34.30;;;;;;10446893;28;20213;-73
2021/10/10 02:17:17;;;;;;;8.70;7.30;;;10.00;33.90;;;;;;10445703;28;20220;-74
2021/10/10 02:22:21;;;;;;;9.67;7.17;;;10.00;34.00;;;;;;10446191;28;20232;-74
2021/10/10 02:27:24;;;;;;;7.03;6.37;;;9.90;35.00;;;;;;10449100;28;20579;-73
2021/10/10 02:32:28;;;;;;;6.87;5.50;;;9.80;35.00;;;;;;10452481;28;20256;-73
2021/10/10 02:37:32;;;;;;;8.73;7.87;;;9.80;34.90;;;;;;10449393;28;20240;-74
2021/10/10 02:42:35;;;;;;;7.27;6.57;;;9.80;35.00;;;;;;10451292;28;20224;-74
2021/10/10 02:47:38;;;;;;;7.40;6.70;;;9.70;34.80;;;;;;10447488;28;20231;-74
2021/10/10 02:52:43;;;;;;;7.80;7.00;;;9.70;35.60;;;;;;10448509;28;20231;-74
2021/10/10 02:57:46;;;;;;;6.67;5.63;;;9.60;35.00;;;;;;10447245;28;20221;-74
2021/10/10 03:02:49;;;;;;;7.37;6.67;;;9.60;35.00;;;;;;10443891;28;20236;-74
2021/10/10 03:07:54;;;;;;;6.93;6.23;;;9.60;35.00;;;;;;10448267;28;20221;-72
2021/10/10 03:12:57;;;;;;;7.43;6.63;;;9.60;35.00;;;;;;10441955;28;20588;-73
2021/10/10 03:18:00;;;;;;;7.57;6.77;;;9.60;34.90;;;;;;10451743;28;20220;-74
2021/10/10 03:23:05;;;;;;;6.97;6.33;;;9.50;34.80;;;;;;10443508;28;20223;-73
2021/10/10 03:28:09;;;;;;;6.50;5.90;;;9.50;34.90;;;;;;10448226;28;20233;-74
2021/10/10 03:33:12;;;;;;;5.27;4.57;;;9.40;34.70;;;;;;10440284;28;20718;-74
2021/10/10 03:38:17;;;;;;;4.60;4.20;;;9.40;34.70;;;;;;10442560;28;20728;-74
2021/10/10 03:43:20;;;;;;;5.87;5.37;;;9.30;34.80;;;;;;10445384;28;20225;-72
2021/10/10 03:48:24;;;;;;;4.90;4.50;;;9.30;34.70;;;;;;10457474;28;20239;-74
2021/10/10 03:53:35;;;;;;;5.10;4.70;;;9.20;34.70;;;;;;10454510;28;20536;-74
2021/10/10 03:58:39;;;;;;;5.47;5.07;;;9.20;34.90;;;;;;10455263;28;20229;-74
2021/10/10 04:03:43;;;;;;;6.40;5.60;;;9.10;34.70;;;;;;10454086;28;20235;-73
2021/10/10 04:08:47;;;;;;;6.70;6.10;;;9.00;34.80;;;;;;10451775;28;20256;-74
2021/10/10 04:13:51;;;;;;;5.87;5.27;;;9.00;34.90;;;;;;10450242;28;20217;-73
2021/10/10 04:18:54;;;;;;;7.83;6.90;;;9.00;35.70;;;;;;10451653;28;20224;-73
2021/10/10 04:23:58;;;;;;;7.73;7.00;;;8.90;34.80;;;;;;10451038;28;20228;-74
2021/10/10 04:29:01;;;;;;;7.13;6.43;;;8.90;34.80;;;;;;10458620;28;20230;-73
2021/10/10 04:34:04;;;;;;;6.70;6.03;;;8.90;34.80;;;;;;10449891;28;20221;-73
2021/10/10 04:39:09;;;;;;;5.80;5.23;;;8.80;35.30;;;;;;10449205;28;20228;-73
2021/10/10 04:44:12;;;;;;;7.17;5.70;;;8.80;34.70;;;;;;10453104;28;20221;-71
2021/10/10 04:49:16;;;;;;;6.40;5.80;;;8.70;34.60;;;;;;10461164;28;20225;-73
2021/10/10 04:54:20;;;;;;;6.70;6.00;;;8.70;34.70;;;;;;10449408;28;20721;-73
2021/10/10 04:59:24;;;;;;;6.60;5.37;;;8.70;34.70;;;;;;10451962;28;20232;-74
2021/10/10 05:04:27;;;;;;;6.53;5.90;;;8.60;34.60;;;;;;10448376;28;20229;-73
2021/10/10 05:09:31;;;;;;;5.67;5.07;;;8.60;34.60;;;;;;10450426;28;20224;-74
2021/10/10 05:14:35;;;;;;;5.63;5.13;;;8.50;34.50;;;;;;10455285;28;20235;-72
2021/10/10 05:19:38;;;;;;;4.87;4.00;;;8.50;34.60;;;;;;10448374;28;20247;-74
2021/10/10 05:24:43;;;;;;;5.13;4.63;;;8.40;34.60;;;;;;10455308;28;20235;-73
2021/10/10 05:29:46;;;;;;;5.57;5.03;;;8.40;34.40;;;;;;10452566;28;20742;-73
2021/10/10 05:34:49;;;;;;;6.30;5.77;;;8.30;34.40;;;;;;10448198;28;20229;-73
2021/10/10 05:39:54;;;;;;;6.33;5.17;;;8.30;34.60;;;;;;10447945;28;20221;-73
2021/10/10 05:44:57;;;;;;;6.90;6.03;;;8.20;34.80;;;;;;10451299;28;20688;-74
2021/10/10 05:50:00;;;;;;;6.50;5.93;;;8.10;34.90;;;;;;10446691;28;20228;-73
2021/10/10 05:55:08;;;;;;;6.47;5.93;;;8.10;34.90;;;;;;10443954;28;20224;-74
2021/10/10 06:00:13;;;;;;;5.73;5.23;;;8.00;35.10;;;;;;10444405;28;20236;-72
2021/10/10 06:05:16;;;;;;;5.47;4.97;;;8.00;35.10;;;;;;10443518;28;20236;-74
2021/10/10 06:10:21;;;;;;;5.77;5.27;;;8.00;35.20;;;;;;10446471;28;20240;-73
2021/10/10 06:15:25;;;;;;;6.37;5.87;;;7.90;35.30;;;;;;10443421;28;20331;-74
2021/10/10 06:20:28;;;;;;;6.90;6.17;;;7.90;35.40;;;;;;10446436;28;20233;-73
2021/10/10 06:25:33;;;;;;;6.27;5.67;;;7.90;35.50;;;;;;10449298;28;20233;-73
2021/10/10 06:30:36;;;;;;;6.70;6.10;;;7.90;35.80;;;;;;10442412;28;20254;-73
2021/10/10 06:35:39;;;;;;;6.80;6.17;;;8.00;35.70;;;;;;10448059;28;20237;-71
2021/10/10 06:40:46;;;;;;;7.27;6.57;;;8.00;35.80;;;;;;10444844;28;20227;-73
2021/10/10 06:45:49;;;;;;;6.70;6.20;;;8.00;36.00;;;;;;10436380;28;20308;-73
2021/10/10 06:50:52;;;;;;;7.13;6.53;;;8.00;35.90;;;;;;10446983;28;20216;-73
2021/10/10 06:55:57;;;;;;;6.53;5.93;;;8.00;36.00;;;;;;10451924;28;20990;-73
2021/10/10 07:01:00;;;;;;;7.20;6.57;;;8.10;36.40;;;;;;10444255;28;20217;-72
2021/10/10 07:06:04;;;;;;;8.33;7.37;;;8.10;36.40;;;;;;10445566;28;20680;-72
2021/10/10 07:11:09;;;;;;;9.10;7.87;;;8.20;36.60;;;;;;10447816;28;20224;-72
2021/10/10 07:16:12;;;;;;;8.63;7.73;;;8.20;37.90;;;;;;10448433;28;20231;-72
2021/10/10 07:21:25;;;;;;;8.93;8.03;;;8.30;36.90;;;;;;10460526;28;20312;-73
2021/10/10 07:26:29;;;;;;;9.57;8.63;;;8.40;37.20;;;;;;10459592;28;20600;-72
2021/10/10 07:31:33;;;;;;;9.40;8.60;;;8.40;37.70;;;;;;10448130;28;20228;-72
2021/10/10 07:36:36;;;;;;;10.20;8.63;;;8.50;37.40;;;;;;10456851;28;20704;-73
2021/10/10 07:41:41;;;;;;;9.37;8.37;;;8.60;37.70;;;;;;10457217;28;20680;-73
2021/10/10 07:46:54;;;;;;;11.57;8.90;;;8.70;38.30;;;;;;10453300;28;20221;-74
2021/10/10 07:51:57;;;;;;;9.57;8.63;;;8.80;38.10;;;;;;10453577;28;20225;-74
2021/10/10 07:57:02;;;;;;;10.00;9.00;;;9.00;38.50;;;;;;10456593;28;20232;-74
2021/10/10 08:02:06;;;;;;;9.80;8.30;;;9.20;39.10;;;;;;10454910;28;20631;-74
2021/10/10 08:07:09;;;;;;;10.63;8.97;;;9.50;38.80;;;;;;10460766;28;20263;-74
2021/10/10 08:12:13;;;;;;;11.37;9.33;;;9.70;39.00;;;;;;10457033;28;20225;-74
2021/10/10 08:17:17;;;;;;;10.37;8.80;;;10.00;38.10;;;;;;10457232;28;20225;-75
2021/10/10 08:22:20;;;;;;;11.07;8.93;;;10.20;38.00;;;;;;10457859;28;20229;-75
2021/10/10 08:27:25;;;;;;;10.83;9.23;;;10.50;38.00;;;;;;10457171;28;20310;-75
2021/10/10 08:32:28;;;;;;;11.30;8.70;;;10.80;38.20;;;;;;10442522;28;20217;-74
2021/10/10 08:37:31;;;;;;;10.90;8.63;;;11.00;37.80;;;;;;10440034;28;20235;-74
2021/10/10 08:42:46;;;;;;;9.73;8.73;;;11.20;37.70;;;;;;10445349;28;20232;-74
2021/10/10 08:47:51;;;;;;;9.77;8.77;;;11.40;37.80;;;;;;10439962;28;20225;-74
2021/10/10 08:52:58;;;;;;;10.57;8.80;;;11.70;37.80;;;;;;10445465;28;20244;-75
2021/10/10 08:58:07;;;;;;;10.00;8.70;;;11.90;37.60;;;;;;10444382;28;20735;-75
2021/10/10 09:03:12;;;;;;;10.30;8.97;;;12.10;37.60;;;;;;10445665;28;20225;-75
2021/10/10 09:08:28;;;;;;;9.50;8.60;;;12.30;37.40;;;;;;10447664;28;20335;-74
2021/10/10 09:13:38;;;;;;;9.63;8.73;;;12.50;37.50;;;;;;10444800;28;20730;-75
2021/10/10 09:18:43;;;;;;;8.90;8.00;;;12.80;37.60;;;;;;10447231;28;20698;-75
2021/10/10 09:23:48;;;;;;;10.20;8.27;;;13.00;37.30;;;;;;10455420;28;20233;-75
2021/10/10 09:28:53;;;;;;;11.23;8.43;;;13.30;36.90;;;;;;10444799;28;20224;-76
2021/10/10 09:33:57;;;;;;;8.70;7.90;;;13.50;36.50;;;;;;10455196;28;20236;-75
2021/10/10 09:39:06;;;;;;;9.67;8.73;;;13.70;36.10;;;;;;10450906;28;20604;-75
2021/10/10 09:44:16;;;;;;;9.67;8.30;;;13.90;35.70;;;;;;10444955;28;20282;-75
2021/10/10 09:49:25;;;;;;;8.27;7.47;;;14.20;35.50;;;;;;10429396;28;20209;-74
2021/10/10 09:54:28;;;;;;;12.10;8.40;;;14.40;35.00;;;;;;10446712;28;20236;-74
2021/10/10 09:59:33;;;;;;;10.30;8.07;;;14.60;35.30;;;;;;10445735;28;20235;-73
2021/10/10 10:04:45;;;;;;;10.93;8.50;;;14.80;34.70;;;;;;10442177;28;20239;-75
2021/10/10 10:09:53;;;;;;;9.80;8.23;;;15.00;34.00;;;;;;10442400;28;20606;-76
2021/10/10 10:15:00;;;;;;;11.00;8.33;;;15.10;34.50;;;;;;10433237;28;20225;-77
2021/10/10 10:20:05;;;;;;;9.80;7.73;;;15.20;34.10;;;;;;10451508;28;20253;-78
2021/10/10 10:25:08;;;;;;;11.83;7.80;;;15.30;34.10;;;;;;10436354;28;20221;-75
2021/10/10 10:30:14;;;;;;;11.43;8.77;;;15.40;34.10;;;;;;10432971;28;21025;-75
2021/10/10 10:35:19;;;;;;;9.70;7.77;;;15.50;33.40;;;;;;10430597;28;20316;-74
2021/10/10 10:40:33;;;;;;;7.60;6.90;;;15.60;33.50;;;;;;10430140;28;20225;-73
2021/10/10 10:45:41;;;;;;;8.63;7.73;;;15.80;32.90;;;;;;10434290;28;20951;-74
2021/10/10 10:50:45;;;;;;;11.00;8.43;;;16.00;33.00;;;;;;10440048;28;20282;-74
2021/10/10 10:55:55;;;;;;;9.83;7.23;;;16.10;33.10;;;;;;10428093;28;21026;-74
2021/10/10 11:01:06;;;;;;;8.17;6.47;;;16.20;31.60;;;;;;10435231;28;20236;-76
2021/10/10 11:06:19;;;;;;;9.10;7.03;;;16.30;31.30;;;;;;10443461;28;20228;-75
2021/10/10 11:11:24;;;;;;;10.57;6.97;;;16.50;31.20;;;;;;10438630;28;20232;-75
2021/10/10 11:16:33;;;;;;;9.00;6.57;;;16.50;32.30;;;;;;10442312;28;20228;-73
2021/10/10 11:21:38;;;;;;;8.70;6.57;;;16.60;30.90;;;;;;10444799;28;20224;-75
2021/10/10 11:26:41;;;;;;;9.17;6.30;;;16.60;31.80;;;;;;10443488;28;20229;-75
2021/10/10 11:31:49;;;;;;;7.27;6.20;;;16.70;32.00;;;;;;10440101;28;20221;-75
2021/10/10 11:36:54;;;;;;;7.00;6.27;;;16.80;31.00;;;;;;10444316;28;20231;-75
2021/10/10 11:42:00;;;;;;;8.67;6.07;;;16.90;30.90;;;;;;10451784;28;20220;-75
2021/10/10 11:47:08;;;;;;;7.50;6.70;;;16.90;30.60;;;;;;10452158;28;20658;-75
2021/10/10 11:52:19;;;;;;;9.33;5.70;;;17.00;30.00;;;;;;10441337;28;20225;-74
2021/10/10 11:57:22;;;;;;;7.47;6.60;;;17.00;29.80;;;;;;10449544;28;20390;-75
2021/10/10 12:02:36;;;;;;;7.20;6.43;;;16.90;30.60;;;;;;10448481;28;20217;-76
2021/10/10 12:07:41;;;;;;;7.30;6.27;;;16.90;29.60;;;;;;10452168;28;20567;-75
2021/10/10 12:12:45;;;;;;;7.90;6.37;;;16.90;30.20;;;;;;10451558;28;20226;-75
2021/10/10 12:17:53;;;;;;;6.57;5.90;;;17.00;30.60;;;;;;10452727;28;20229;-75
2021/10/10 12:22:59;;;;;;;7.80;7.00;;;17.00;29.80;;;;;;10459222;28;20244;-75
2021/10/10 12:28:06;;;;;;;7.60;6.40;;;17.00;29.70;;;;;;10454468;28;20238;-74
2021/10/10 12:33:26;;;;;;;9.00;6.87;;;17.00;29.40;;;;;;10453492;28;20233;-74
2021/10/10 12:38:33;;;;;;;7.73;6.50;;;16.90;29.20;;;;;;10451865;28;20234;-74
2021/10/10 12:43:39;;;;;;;7.50;6.73;;;16.90;29.50;;;;;;10451399;28;20231;-74
2021/10/10 12:48:55;;;;;;;7.83;6.53;;;16.90;29.80;;;;;;10451143;28;20233;-74
2021/10/10 12:54:11;;;;;;;6.77;6.23;;;16.90;29.60;;;;;;10453272;28;20220;-75
2021/10/10 12:59:23;;;;;;;7.17;6.27;;;16.90;29.00;;;;;;10447156;28;20228;-75
2021/10/10 13:04:28;;;;;;;7.03;6.37;;;16.90;28.70;;;;;;10453786;28;20232;-74
2021/10/10 13:09:31;;;;;;;7.90;6.40;;;16.90;29.50;;;;;;10455665;28;20229;-77
2021/10/10 13:14:35;;;;;;;7.23;6.37;;;16.90;29.60;;;;;;10451701;28;20239;-75
2021/10/10 13:19:40;;;;;;;7.93;6.47;;;16.90;29.60;;;;;;10457122;28;20340;-75
2021/10/10 13:24:43;;;;;;;7.17;6.27;;;16.90;29.30;;;;;;10457609;28;20770;-75
2021/10/10 13:29:46;;;;;;;5.93;5.33;;;16.90;29.60;;;;;;10442048;28;20304;-74
2021/10/10 13:34:51;;;;;;;6.90;6.30;;;17.00;29.70;;;;;;10448025;28;20311;-74
2021/10/10 13:39:54;;;;;;;6.33;5.70;;;17.00;29.10;;;;;;10453848;28;20306;-74
2021/10/10 13:44:57;;;;;;;8.57;6.20;;;17.00;29.50;;;;;;10456156;28;20225;-75
2021/10/10 13:50:02;;;;;;;7.10;6.07;;;17.00;29.50;;;;;;10434804;28;20222;-74
2021/10/10 13:55:07;;;;;;;6.03;5.43;;;17.10;29.30;;;;;;10442565;28;20231;-74
2021/10/10 14:00:12;;;;;;;8.20;6.13;;;17.10;29.40;;;;;;10447594;28;20224;-74
2021/10/10 14:05:16;;;;;;;6.67;6.00;;;17.20;29.50;;;;;;10462951;28;20734;-73
2021/10/10 14:10:19;;;;;;;7.53;6.00;;;17.20;28.90;;;;;;10458541;28;20228;-74
2021/10/10 14:15:23;;;;;;;7.63;6.03;;;17.20;29.10;;;;;;10445169;28;20229;-74
2021/10/10 14:20:28;;;;;;;7.47;5.83;;;17.20;28.90;;;;;;10461150;28;20716;-74
2021/10/10 14:25:31;;;;;;;7.27;5.90;;;17.20;28.60;;;;;;10474413;28;20268;-75
2021/10/10 14:30:34;;;;;;;8.80;6.10;;;17.20;29.10;;;;;;10440769;28;20237;-74
2021/10/10 14:35:39;;;;;;;6.90;6.27;;;17.20;29.50;;;;;;10457773;28;20244;-74
2021/10/10 14:40:55;;;;;;;7.40;5.40;;;17.20;28.50;;;;;;10456943;28;20251;-74
2021/10/10 14:46:01;;;;;;;8.53;6.03;;;17.20;28.80;;;;;;10462064;28;20896;-74
2021/10/10 14:51:06;;;;;;;7.13;5.60;;;17.20;28.80;;;;;;10460036;28;20225;-74
2021/10/10 14:56:09;;;;;;;7.00;5.83;;;17.20;28.50;;;;;;10456342;28;20735;-74
2021/10/10 15:01:12;;;;;;;7.30;5.73;;;17.20;28.70;;;;;;10472155;28;20232;-74
2021/10/10 15:06:17;;;;;;;5.80;5.30;;;17.20;28.60;;;;;;10458728;28;20633;-74
2021/10/10 15:11:20;;;;;;;7.07;6.13;;;17.20;28.40;;;;;;10454394;28;20315;-74
2021/10/10 15:16:23;;;;;;;6.60;5.73;;;17.20;28.50;;;;;;10460070;28;20228;-74
2021/10/10 15:21:29;;;;;;;6.03;5.43;;;17.20;28.40;;;;;;10465161;28;20772;-75
2021/10/10 15:26:33;;;;;;;7.23;5.43;;;17.20;28.00;;;;;;10448373;28;20709;-76
2021/10/10 15:31:36;;;;;;;5.70;5.03;;;17.10;28.60;;;;;;10458653;28;20247;-76
2021/10/10 15:36:40;;;;;;;6.43;5.50;;;17.10;28.80;;;;;;10453657;28;20224;-76
2021/10/10 15:41:44;;;;;;;6.70;5.27;;;17.10;28.50;;;;;;10458512;28;20224;-76
2021/10/10 15:46:47;;;;;;;6.20;5.07;;;17.10;29.00;;;;;;10459665;28;20315;-76
2021/10/10 15:51:53;;;;;;;7.40;5.60;;;17.00;29.50;;;;;;10447131;28;20257;-76
2021/10/10 15:56:56;;;;;;;6.27;5.53;;;17.00;29.10;;;;;;10434614;28;20221;-76
2021/10/10 16:01:59;;;;;;;6.17;5.50;;;17.00;29.40;;;;;;10451906;28;20217;-76
2021/10/10 16:07:05;;;;;;;7.37;5.87;;;16.90;29.30;;;;;;10437941;28;20303;-76
2021/10/10 16:12:08;;;;;;;6.57;5.80;;;16.80;29.20;;;;;;10449125;28;20312;-76
2021/10/10 16:17:11;;;;;;;6.50;5.30;;;16.80;29.40;;;;;;10456736;28;20225;-76
2021/10/10 16:22:16;;;;;;;8.83;5.80;;;16.70;29.20;;;;;;10447339;28;21081;-76
2021/10/10 16:27:20;;;;;;;10.53;9.43;;;16.60;29.20;;;;;;10443679;28;20232;-76
2021/10/10 16:32:23;;;;;;;12.80;9.63;;;16.50;29.40;;;;;;10447509;28;20736;-76
2021/10/10 16:37:39;;;;;;;13.53;10.53;;;16.40;29.60;;;;;;10446211;28;20658;-77
2021/10/10 16:42:42;;;;;;;12.27;10.97;;;16.30;29.70;;;;;;10440676;28;20246;-77
2021/10/10 16:47:46;;;;;;;11.20;10.00;;;16.20;29.70;;;;;;10452347;28;20228;-76
2021/10/10 16:52:50;;;;;;;9.23;8.23;;;16.10;29.70;;;;;;10448147;28;20716;-76
2021/10/10 16:57:53;;;;;;;8.97;8.17;;;15.90;29.70;;;;;;10452519;28;20245;-75
2021/10/10 17:02:57;;;;;;;8.57;7.73;;;15.80;29.70;;;;;;10447737;28;20221;-76
2021/10/10 17:08:01;;;;;;;8.03;6.70;;;15.60;29.70;;;;;;10451888;28;20282;-77
2021/10/10 17:13:06;;;;;;;9.83;7.80;;;15.50;30.00;;;;;;10448800;28;20255;-76
2021/10/10 17:18:10;;;;;;;8.73;7.80;;;15.30;29.90;;;;;;10447286;28;20256;-76
2021/10/10 17:23:15;;;;;;;11.90;10.57;;;15.20;29.90;;;;;;10440441;28;20680;-76
2021/10/10 17:28:18;;;;;;;12.97;11.70;;;15.00;30.70;;;;;;10451918;28;20648;-77
2021/10/10 17:33:22;;;;;;;14.87;13.27;;;14.90;30.00;;;;;;10442155;28;20256;-77
2021/10/10 17:38:27;;;;;;;15.40;13.80;;;14.70;30.00;;;;;;10458327;28;20600;-76
2021/10/10 17:43:30;;;;;;;15.97;13.37;;;14.60;30.30;;;;;;10437645;28;20248;-77
2021/10/10 17:48:34;;;;;;;14.13;12.73;;;14.50;30.20;;;;;;10443121;28;20234;-76
2021/10/10 17:53:39;;;;;;;18.23;13.73;;;14.30;30.40;;;;;;10441803;28;20251;-77
2021/10/10 17:58:53;;;;;;;12.43;11.13;;;14.20;30.60;;;;;;10438143;28;20229;-77
2021/10/10 18:04:12;;;;;;;13.07;11.73;;;14.10;30.50;;;;;;10442703;28;20721;-77
2021/10/10 18:14:39;;;;;;;10.47;9.47;;;14.00;30.60;;;;;;10398823;28;20292;-77
2021/10/10 18:19:42;;;;;;;10.97;9.97;;;13.80;30.60;;;;;;10451586;28;20315;-75
2021/10/10 18:24:47;;;;;;;10.30;9.30;;;13.70;31.00;;;;;;10437964;28;20233;-75
2021/10/10 18:29:50;;;;;;;9.70;8.70;;;13.60;30.90;;;;;;10438895;28;20220;-74
2021/10/10 18:34:53;;;;;;;12.10;10.27;;;13.60;30.90;;;;;;10443708;28;21034;-74
2021/10/10 18:39:58;;;;;;;12.27;10.97;;;13.50;30.80;;;;;;10447657;28;20220;-74
2021/10/10 18:45:01;;;;;;;8.73;7.93;;;13.50;30.80;;;;;;10440956;28;20232;-74
2021/10/10 18:50:06;;;;;;;10.10;9.10;;;13.40;30.70;;;;;;10433910;28;20229;-75
2021/10/10 18:55:11;;;;;;;10.90;9.73;;;13.30;30.60;;;;;;10440982;28;20627;-75
2021/10/10 19:00:15;;;;;;;49.87;36.53;;;13.20;30.50;;;;;;10426633;28;20249;-74
2021/10/10 19:05:18;;;;;;;37.90;28.00;;;13.10;30.40;;;;;;10439843;28;21029;-74
2021/10/10 19:10:23;;;;;;;30.33;23.23;;;13.10;30.40;;;;;;10429507;28;20241;-76
2021/10/10 19:15:26;;;;;;;20.00;15.93;;;13.00;30.40;;;;;;10432410;28;20320;-75
2021/10/10 19:20:30;;;;;;;14.40;12.10;;;12.90;30.40;;;;;;10442478;28;20254;-75
2021/10/10 19:25:35;;;;;;;22.30;18.97;;;12.90;30.60;;;;;;10443086;28;20224;-75
2021/10/10 19:30:39;;;;;;;13.47;12.07;;;12.80;30.60;;;;;;10436081;28;20243;-75
2021/10/10 19:35:42;;;;;;;10.90;9.80;;;12.70;30.40;;;;;;10423420;28;20243;-75
2021/10/10 19:40:47;;;;;;;10.63;9.53;;;12.60;30.60;;;;;;10433772;28;20224;-76
2021/10/10 19:45:50;;;;;;;12.17;9.73;;;12.50;30.60;;;;;;10439901;28;20231;-75
2021/10/10 19:51:00;;;;;;;11.73;10.13;;;12.40;30.60;;;;;;10441915;28;20248;-75
2021/10/10 19:56:05;;;;;;;19.93;15.87;;;12.30;30.80;;;;;;10438996;28;20255;-74
2021/10/10 20:01:09;;;;;;;18.63;15.77;;;12.20;31.20;;;;;;10436877;28;20250;-75
2021/10/10 20:06:12;;;;;;;15.67;13.97;;;12.10;31.10;;;;;;10441510;28;20229;-74
2021/10/10 20:11:18;;;;;;;12.43;11.13;;;12.00;31.20;;;;;;10441968;28;20260;-75
2021/10/10 20:16:21;;;;;;;10.27;9.27;;;11.90;31.30;;;;;;10442964;28;20229;-75
2021/10/10 20:21:26;;;;;;;10.90;9.83;;;11.90;31.20;;;;;;10437808;28;20626;-75
2021/10/10 20:26:35;;;;;;;13.67;12.27;;;11.80;31.30;;;;;;10440028;28;20225;-75
2021/10/10 20:31:39;;;;;;;12.33;10.77;;;11.70;31.30;;;;;;10441944;28;21021;-76
2021/10/10 20:36:42;;;;;;;9.43;8.43;;;11.50;31.10;;;;;;10443470;28;20925;-75
2021/10/10 20:41:47;;;;;;;9.57;8.13;;;11.40;31.30;;;;;;10439783;28;20684;-75
2021/10/10 20:46:50;;;;;;;9.47;8.47;;;11.40;31.70;;;;;;10440322;28;20316;-74
2021/10/10 20:51:54;;;;;;;8.03;7.23;;;11.30;31.50;;;;;;10443633;28;20441;-75
2021/10/10 20:56:58;;;;;;;7.77;6.83;;;11.20;31.50;;;;;;10440562;28;20224;-75
2021/10/10 21:02:01;;;;;;;9.80;8.23;;;11.20;31.90;;;;;;10437697;28;20224;-74
2021/10/10 21:07:05;;;;;;;10.13;7.57;;;11.10;31.70;;;;;;10431581;28;20267;-74
2021/10/10 21:12:10;;;;;;;7.67;6.73;;;11.00;31.70;;;;;;10435322;28;20929;-74
2021/10/10 21:17:15;;;;;;;7.47;6.77;;;11.00;31.90;;;;;;10443455;28;20645;-74
2021/10/10 21:22:19;;;;;;;9.47;7.50;;;10.90;31.90;;;;;;10445801;28;20259;-74
2021/10/10 21:27:26;;;;;;;8.63;7.60;;;10.90;31.60;;;;;;10449081;28;20237;-74
2021/10/10 21:32:42;;;;;;;8.53;7.63;;;10.80;31.90;;;;;;10449190;28;20284;-74
2021/10/10 21:37:49;;;;;;;7.47;6.77;;;10.80;31.90;;;;;;10454323;28;20232;-74
2021/10/10 21:42:54;;;;;;;9.23;7.63;;;10.70;31.90;;;;;;10437016;28;20229;-74
2021/10/10 21:47:57;;;;;;;9.50;6.03;;;10.70;32.10;;;;;;10430760;28;20249;-76
2021/10/10 21:53:02;;;;;;;7.93;6.60;;;10.70;31.90;;;;;;10435967;28;20232;-74
2021/10/10 21:58:07;;;;;;;9.20;6.17;;;10.60;31.90;;;;;;10453014;28;20238;-75
2021/10/10 22:03:13;;;;;;;8.10;7.30;;;10.60;32.10;;;;;;10442826;28;20233;-75
2021/10/10 22:08:16;;;;;;;7.57;6.87;;;10.50;31.90;;;;;;10442334;28;20756;-74
2021/10/10 22:13:21;;;;;;;8.47;7.63;;;10.40;31.70;;;;;;10442279;28;20236;-74
2021/10/10 22:18:24;;;;;;;8.27;6.47;;;10.30;32.10;;;;;;10432014;28;20315;-74
2021/10/10 22:23:30;;;;;;;7.77;7.07;;;10.10;32.00;;;;;;10439012;28;20315;-74
2021/10/10 22:33:56;;;;;;;8.33;6.70;;;9.90;33.50;;;;;;10422455;28;20225;-74
2021/10/10 22:38:59;;;;;;;7.83;7.03;;;9.80;33.20;;;;;;10435049;28;20213;-74
2021/10/10 22:44:05;;;;;;;8.10;6.63;;;9.80;33.40;;;;;;10432474;28;20213;-74
2021/10/10 22:49:08;;;;;;;8.30;7.50;;;9.70;33.60;;;;;;10460598;28;20232;-74
2021/10/10 22:54:11;;;;;;;7.60;6.90;;;9.70;33.60;;;;;;10441697;28;20232;-74
2021/10/10 22:59:16;;;;;;;7.93;7.13;;;9.70;33.40;;;;;;10436933;28;20220;-73
2021/10/10 23:04:19;;;;;;;9.40;7.83;;;9.60;33.50;;;;;;10432862;28;20245;-73
2021/10/10 23:09:22;;;;;;;8.23;7.40;;;9.60;33.50;;;;;;10446953;28;20696;-73
2021/10/10 23:14:27;;;;;;;9.03;6.60;;;9.50;33.50;;;;;;10434159;28;20235;-73
2021/10/10 23:19:30;;;;;;;9.00;7.70;;;9.50;33.60;;;;;;10437538;28;20216;-74
2021/10/10 23:24:34;;;;;;;10.43;6.77;;;9.40;33.50;;;;;;10445029;28;20225;-73
2021/10/10 23:29:38;;;;;;;8.17;7.43;;;9.30;33.50;;;;;;10448955;28;20739;-73
2021/10/10 23:34:42;;;;;;;8.33;7.50;;;9.30;33.90;;;;;;10449360;28;20235;-73
2021/10/10 23:39:45;;;;;;;8.20;7.40;;;9.20;33.60;;;;;;10446639;28;20232;-73
2021/10/10 23:44:49;;;;;;;7.53;6.83;;;9.20;33.60;;;;;;10441286;28;20230;-73
2021/10/10 23:49:52;;;;;;;7.57;6.87;;;9.20;34.60;;;;;;10450081;28;20229;-73
2021/10/10 23:54:56;;;;;;;7.27;6.40;;;9.20;33.80;;;;;;10439447;28;20229;-73
